sensor_id;sensor_type;location;lat;lon;timestamp;P1;durP1;ratioP1;P2;durP2;ratioP2
5752;SDS011;2901;42.140;24.760;2023-09-18T00:01:47;5.45;;;2.85;;
5752;SDS011;2901;42.140;24.760;2023-09-18T00:04:13;4.15;;;2.70;;
5752;SDS011;2901;42.140;24.760;2023-09-18T00:06:38;3.03;;;2.72;;
5752;SDS011;2901;42.140;24.760;2023-09-18T00:09:03;3.10;;;2.88;;
5752;SDS011;2901;42.140;24.760;2023-09-18T00:11:29;3.28;;;3.08;;
5752;SDS011;2901;42.140;24.760;2023-09-18T00:13:54;4.20;;;3.00;;
5752;SDS011;2901;42.140;24.760;2023-09-18T00:16:19;4.82;;;2.83;;
5752;SDS011;2901;42.140;24.760;2023-09-18T00:18:45;3.08;;;2.88;;
5752;SDS011;2901;42.140;24.760;2023-09-18T00:21:10;3.28;;;3.08;;
5752;SDS011;2901;42.140;24.760;2023-09-18T00:23:36;3.67;;;3.47;;
5752;SDS011;2901;42.140;24.760;2023-09-18T00:26:02;4.22;;;3.20;;
5752;SDS011;2901;42.140;24.760;2023-09-18T00:28:28;6.35;;;3.25;;
5752;SDS011;2901;42.140;24.760;2023-09-18T00:30:54;3.38;;;3.17;;
5752;SDS011;2901;42.140;24.760;2023-09-18T00:33:19;3.72;;;3.45;;
5752;SDS011;2901;42.140;24.760;2023-09-18T00:35:48;3.45;;;3.00;;
5752;SDS011;2901;42.140;24.760;2023-09-18T00:38:15;5.43;;;3.60;;
5752;SDS011;2901;42.140;24.760;2023-09-18T00:40:41;4.63;;;3.08;;
5752;SDS011;2901;42.140;24.760;2023-09-18T00:43:07;3.65;;;3.45;;
5752;SDS011;2901;42.140;24.760;2023-09-18T00:45:33;4.00;;;3.15;;
5752;SDS011;2901;42.140;24.760;2023-09-18T00:48:01;3.40;;;3.10;;
5752;SDS011;2901;42.140;24.760;2023-09-18T00:50:26;3.53;;;3.13;;
5752;SDS011;2901;42.140;24.760;2023-09-18T00:52:52;4.50;;;3.22;;
5752;SDS011;2901;42.140;24.760;2023-09-18T00:55:17;5.38;;;3.53;;
5752;SDS011;2901;42.140;24.760;2023-09-18T00:57:43;7.68;;;3.45;;
5752;SDS011;2901;42.140;24.760;2023-09-18T01:00:09;3.40;;;3.10;;
5752;SDS011;2901;42.140;24.760;2023-09-18T01:02:40;3.58;;;3.28;;
5752;SDS011;2901;42.140;24.760;2023-09-18T01:05:06;8.80;;;3.97;;
5752;SDS011;2901;42.140;24.760;2023-09-18T01:07:31;5.82;;;3.13;;
5752;SDS011;2901;42.140;24.760;2023-09-18T01:09:57;3.08;;;2.88;;
5752;SDS011;2901;42.140;24.760;2023-09-18T01:15:02;4.30;;;3.03;;
5752;SDS011;2901;42.140;24.760;2023-09-18T01:17:34;5.00;;;3.40;;
5752;SDS011;2901;42.140;24.760;2023-09-18T01:20:01;4.80;;;2.80;;
5752;SDS011;2901;42.140;24.760;2023-09-18T01:22:31;6.38;;;3.10;;
5752;SDS011;2901;42.140;24.760;2023-09-18T01:24:57;3.25;;;3.05;;
5752;SDS011;2901;42.140;24.760;2023-09-18T01:27:22;2.72;;;2.63;;
5752;SDS011;2901;42.140;24.760;2023-09-18T01:29:48;3.42;;;3.13;;
5752;SDS011;2901;42.140;24.760;2023-09-18T01:32:14;5.13;;;3.17;;
5752;SDS011;2901;42.140;24.760;2023-09-18T01:34:48;3.75;;;3.45;;
5752;SDS011;2901;42.140;24.760;2023-09-18T01:37:15;3.17;;;2.88;;
5752;SDS011;2901;42.140;24.760;2023-09-18T01:39:43;4.63;;;3.08;;
5752;SDS011;2901;42.140;24.760;2023-09-18T01:42:11;3.40;;;3.20;;
5752;SDS011;2901;42.140;24.760;2023-09-18T01:44:36;4.57;;;3.00;;
5752;SDS011;2901;42.140;24.760;2023-09-18T01:47:03;5.18;;;2.78;;
5752;SDS011;2901;42.140;24.760;2023-09-18T01:49:32;5.50;;;3.22;;
5752;SDS011;2901;42.140;24.760;2023-09-18T01:52:02;4.68;;;3.25;;
5752;SDS011;2901;42.140;24.760;2023-09-18T01:54:28;4.38;;;3.08;;
5752;SDS011;2901;42.140;24.760;2023-09-18T01:56:54;5.05;;;3.20;;
5752;SDS011;2901;42.140;24.760;2023-09-18T01:59:20;4.20;;;3.65;;
5752;SDS011;2901;42.140;24.760;2023-09-18T02:01:46;3.33;;;3.03;;
5752;SDS011;2901;42.140;24.760;2023-09-18T02:04:12;3.90;;;2.83;;
5752;SDS011;2901;42.140;24.760;2023-09-18T02:06:37;3.33;;;3.08;;
5752;SDS011;2901;42.140;24.760;2023-09-18T02:09:03;4.97;;;3.28;;
5752;SDS011;2901;42.140;24.760;2023-09-18T02:11:38;4.43;;;3.45;;
5752;SDS011;2901;42.140;24.760;2023-09-18T02:14:04;4.53;;;3.03;;
5752;SDS011;2901;42.140;24.760;2023-09-18T02:16:30;2.88;;;2.78;;
5752;SDS011;2901;42.140;24.760;2023-09-18T02:18:56;2.85;;;2.63;;
5752;SDS011;2901;42.140;24.760;2023-09-18T02:21:22;5.85;;;3.22;;
5752;SDS011;2901;42.140;24.760;2023-09-18T02:23:49;3.10;;;2.78;;
5752;SDS011;2901;42.140;24.760;2023-09-18T02:26:22;4.40;;;3.60;;
5752;SDS011;2901;42.140;24.760;2023-09-18T02:28:49;4.63;;;3.75;;
5752;SDS011;2901;42.140;24.760;2023-09-18T02:31:16;3.10;;;2.67;;
5752;SDS011;2901;42.140;24.760;2023-09-18T02:33:41;4.25;;;3.50;;
5752;SDS011;2901;42.140;24.760;2023-09-18T02:36:08;7.32;;;3.33;;
5752;SDS011;2901;42.140;24.760;2023-09-18T02:38:33;4.20;;;3.28;;
5752;SDS011;2901;42.140;24.760;2023-09-18T02:40:59;3.72;;;2.95;;
5752;SDS011;2901;42.140;24.760;2023-09-18T02:43:24;3.65;;;2.97;;
5752;SDS011;2901;42.140;24.760;2023-09-18T02:45:50;3.58;;;3.38;;
5752;SDS011;2901;42.140;24.760;2023-09-18T02:48:16;4.30;;;2.97;;
5752;SDS011;2901;42.140;24.760;2023-09-18T02:50:42;3.05;;;2.88;;
5752;SDS011;2901;42.140;24.760;2023-09-18T02:53:11;10.90;;;3.33;;
5752;SDS011;2901;42.140;24.760;2023-09-18T02:55:41;3.28;;;3.08;;
5752;SDS011;2901;42.140;24.760;2023-09-18T02:58:07;7.05;;;3.75;;
5752;SDS011;2901;42.140;24.760;2023-09-18T03:00:34;4.32;;;4.03;;
5752;SDS011;2901;42.140;24.760;2023-09-18T03:02:59;5.05;;;3.38;;
5752;SDS011;2901;42.140;24.760;2023-09-18T03:05:25;3.15;;;2.95;;
5752;SDS011;2901;42.140;24.760;2023-09-18T03:07:51;3.60;;;3.00;;
5752;SDS011;2901;42.140;24.760;2023-09-18T03:10:16;2.83;;;2.65;;
5752;SDS011;2901;42.140;24.760;2023-09-18T03:12:43;3.00;;;2.80;;
5752;SDS011;2901;42.140;24.760;2023-09-18T03:15:12;2.90;;;2.70;;
5752;SDS011;2901;42.140;24.760;2023-09-18T03:17:37;3.47;;;3.22;;
5752;SDS011;2901;42.140;24.760;2023-09-18T03:20:06;3.50;;;3.20;;
5752;SDS011;2901;42.140;24.760;2023-09-18T03:22:32;4.10;;;2.72;;
5752;SDS011;2901;42.140;24.760;2023-09-18T03:24:57;5.75;;;4.15;;
5752;SDS011;2901;42.140;24.760;2023-09-18T03:27:23;3.60;;;3.30;;
5752;SDS011;2901;42.140;24.760;2023-09-18T03:29:53;6.50;;;4.00;;
5752;SDS011;2901;42.140;24.760;2023-09-18T03:32:19;3.97;;;3.28;;
5752;SDS011;2901;42.140;24.760;2023-09-18T03:34:44;6.18;;;3.13;;
5752;SDS011;2901;42.140;24.760;2023-09-18T03:37:10;3.20;;;3.00;;
5752;SDS011;2901;42.140;24.760;2023-09-18T03:39:35;4.88;;;4.15;;
5752;SDS011;2901;42.140;24.760;2023-09-18T03:42:00;5.93;;;3.20;;
5752;SDS011;2901;42.140;24.760;2023-09-18T03:44:26;4.78;;;3.63;;
5752;SDS011;2901;42.140;24.760;2023-09-18T03:46:51;5.32;;;3.30;;
5752;SDS011;2901;42.140;24.760;2023-09-18T03:49:17;13.25;;;4.50;;
5752;SDS011;2901;42.140;24.760;2023-09-18T03:51:42;4.13;;;3.65;;
5752;SDS011;2901;42.140;24.760;2023-09-18T03:54:09;5.68;;;3.78;;
5752;SDS011;2901;42.140;24.760;2023-09-18T03:56:35;7.50;;;4.13;;
5752;SDS011;2901;42.140;24.760;2023-09-18T03:59:00;3.35;;;3.05;;
5752;SDS011;2901;42.140;24.760;2023-09-18T04:01:26;5.13;;;2.58;;
5752;SDS011;2901;42.140;24.760;2023-09-18T04:03:52;5.90;;;3.25;;
5752;SDS011;2901;42.140;24.760;2023-09-18T04:06:18;6.68;;;3.00;;
5752;SDS011;2901;42.140;24.760;2023-09-18T04:08:45;7.63;;;3.22;;
5752;SDS011;2901;42.140;24.760;2023-09-18T04:11:11;7.65;;;3.65;;
5752;SDS011;2901;42.140;24.760;2023-09-18T04:13:36;5.45;;;2.97;;
5752;SDS011;2901;42.140;24.760;2023-09-18T04:16:03;8.93;;;3.78;;
5752;SDS011;2901;42.140;24.760;2023-09-18T04:18:29;8.95;;;3.83;;
5752;SDS011;2901;42.140;24.760;2023-09-18T04:20:54;5.32;;;3.53;;
5752;SDS011;2901;42.140;24.760;2023-09-18T04:23:24;5.53;;;3.53;;
5752;SDS011;2901;42.140;24.760;2023-09-18T04:25:51;8.95;;;4.47;;
5752;SDS011;2901;42.140;24.760;2023-09-18T04:28:18;6.95;;;4.38;;
5752;SDS011;2901;42.140;24.760;2023-09-18T04:30:45;6.20;;;4.53;;
5752;SDS011;2901;42.140;24.760;2023-09-18T04:33:11;6.63;;;4.13;;
5752;SDS011;2901;42.140;24.760;2023-09-18T04:35:38;4.68;;;4.07;;
5752;SDS011;2901;42.140;24.760;2023-09-18T04:38:05;5.10;;;3.22;;
5752;SDS011;2901;42.140;24.760;2023-09-18T04:40:32;6.40;;;5.10;;
5752;SDS011;2901;42.140;24.760;2023-09-18T04:43:00;7.57;;;4.90;;
5752;SDS011;2901;42.140;24.760;2023-09-18T04:45:26;6.32;;;5.72;;
5752;SDS011;2901;42.140;24.760;2023-09-18T04:47:52;11.88;;;5.80;;
5752;SDS011;2901;42.140;24.760;2023-09-18T04:50:18;9.80;;;5.93;;
5752;SDS011;2901;42.140;24.760;2023-09-18T04:52:43;14.32;;;5.55;;
5752;SDS011;2901;42.140;24.760;2023-09-18T04:55:09;7.80;;;5.75;;
5752;SDS011;2901;42.140;24.760;2023-09-18T04:57:36;11.68;;;6.07;;
5752;SDS011;2901;42.140;24.760;2023-09-18T05:00:02;7.32;;;6.18;;
5752;SDS011;2901;42.140;24.760;2023-09-18T05:02:28;8.73;;;5.28;;
5752;SDS011;2901;42.140;24.760;2023-09-18T05:04:55;9.75;;;6.10;;
5752;SDS011;2901;42.140;24.760;2023-09-18T05:07:21;6.20;;;5.60;;
5752;SDS011;2901;42.140;24.760;2023-09-18T05:09:47;9.43;;;4.93;;
5752;SDS011;2901;42.140;24.760;2023-09-18T05:12:12;9.85;;;6.18;;
5752;SDS011;2901;42.140;24.760;2023-09-18T05:14:40;9.30;;;5.70;;
5752;SDS011;2901;42.140;24.760;2023-09-18T05:17:08;9.18;;;5.20;;
5752;SDS011;2901;42.140;24.760;2023-09-18T05:19:36;5.22;;;4.55;;
5752;SDS011;2901;42.140;24.760;2023-09-18T05:22:01;9.90;;;5.40;;
5752;SDS011;2901;42.140;24.760;2023-09-18T05:24:28;6.55;;;4.90;;
5752;SDS011;2901;42.140;24.760;2023-09-18T05:26:54;12.63;;;6.57;;
5752;SDS011;2901;42.140;24.760;2023-09-18T05:29:20;8.57;;;4.60;;
5752;SDS011;2901;42.140;24.760;2023-09-18T05:31:45;4.78;;;4.05;;
5752;SDS011;2901;42.140;24.760;2023-09-18T05:34:11;11.80;;;6.53;;
5752;SDS011;2901;42.140;24.760;2023-09-18T05:36:37;4.75;;;3.97;;
5752;SDS011;2901;42.140;24.760;2023-09-18T05:39:03;3.05;;;2.85;;
5752;SDS011;2901;42.140;24.760;2023-09-18T05:41:34;4.82;;;3.65;;
5752;SDS011;2901;42.140;24.760;2023-09-18T05:44:00;5.20;;;3.83;;
5752;SDS011;2901;42.140;24.760;2023-09-18T05:46:28;4.80;;;3.78;;
5752;SDS011;2901;42.140;24.760;2023-09-18T05:48:54;7.10;;;3.15;;
5752;SDS011;2901;42.140;24.760;2023-09-18T05:51:23;7.05;;;2.85;;
5752;SDS011;2901;42.140;24.760;2023-09-18T05:53:48;8.35;;;2.92;;
5752;SDS011;2901;42.140;24.760;2023-09-18T05:56:14;5.47;;;2.42;;
5752;SDS011;2901;42.140;24.760;2023-09-18T05:58:42;5.50;;;2.70;;
5752;SDS011;2901;42.140;24.760;2023-09-18T06:01:07;3.75;;;3.38;;
5752;SDS011;2901;42.140;24.760;2023-09-18T06:03:33;7.75;;;3.50;;
5752;SDS011;2901;42.140;24.760;2023-09-18T06:06:03;9.30;;;2.97;;
5752;SDS011;2901;42.140;24.760;2023-09-18T06:08:32;5.95;;;3.60;;
5752;SDS011;2901;42.140;24.760;2023-09-18T06:10:58;5.57;;;4.85;;
5752;SDS011;2901;42.140;24.760;2023-09-18T06:13:24;11.65;;;4.32;;
5752;SDS011;2901;42.140;24.760;2023-09-18T06:15:50;7.32;;;3.60;;
5752;SDS011;2901;42.140;24.760;2023-09-18T06:18:17;7.38;;;3.38;;
5752;SDS011;2901;42.140;24.760;2023-09-18T06:20:45;4.47;;;3.22;;
5752;SDS011;2901;42.140;24.760;2023-09-18T06:23:11;7.88;;;3.10;;
5752;SDS011;2901;42.140;24.760;2023-09-18T06:25:36;7.90;;;3.00;;
5752;SDS011;2901;42.140;24.760;2023-09-18T06:28:03;8.23;;;3.17;;
5752;SDS011;2901;42.140;24.760;2023-09-18T06:30:29;3.63;;;3.28;;
5752;SDS011;2901;42.140;24.760;2023-09-18T06:32:56;3.40;;;2.90;;
5752;SDS011;2901;42.140;24.760;2023-09-18T06:35:21;5.00;;;2.97;;
5752;SDS011;2901;42.140;24.760;2023-09-18T06:37:47;3.40;;;3.20;;
5752;SDS011;2901;42.140;24.760;2023-09-18T06:40:13;3.33;;;2.67;;
5752;SDS011;2901;42.140;24.760;2023-09-18T06:42:38;6.95;;;3.13;;
5752;SDS011;2901;42.140;24.760;2023-09-18T06:45:04;6.63;;;2.60;;
5752;SDS011;2901;42.140;24.760;2023-09-18T06:47:32;8.48;;;3.42;;
5752;SDS011;2901;42.140;24.760;2023-09-18T06:49:58;7.65;;;3.38;;
5752;SDS011;2901;42.140;24.760;2023-09-18T06:52:25;5.10;;;3.22;;
5752;SDS011;2901;42.140;24.760;2023-09-18T06:54:51;5.40;;;3.30;;
5752;SDS011;2901;42.140;24.760;2023-09-18T06:57:17;5.15;;;3.05;;
5752;SDS011;2901;42.140;24.760;2023-09-18T06:59:42;3.33;;;2.78;;
5752;SDS011;2901;42.140;24.760;2023-09-18T07:02:08;2.90;;;2.70;;
5752;SDS011;2901;42.140;24.760;2023-09-18T07:04:33;4.20;;;3.33;;
5752;SDS011;2901;42.140;24.760;2023-09-18T07:06:58;4.57;;;3.60;;
5752;SDS011;2901;42.140;24.760;2023-09-18T07:09:24;9.30;;;3.08;;
5752;SDS011;2901;42.140;24.760;2023-09-18T07:11:50;5.78;;;3.55;;
5752;SDS011;2901;42.140;24.760;2023-09-18T07:14:16;3.40;;;3.20;;
5752;SDS011;2901;42.140;24.760;2023-09-18T07:16:42;6.50;;;3.92;;
5752;SDS011;2901;42.140;24.760;2023-09-18T07:19:08;7.18;;;2.80;;
5752;SDS011;2901;42.140;24.760;2023-09-18T07:21:36;3.72;;;2.58;;
5752;SDS011;2901;42.140;24.760;2023-09-18T07:24:03;3.30;;;3.00;;
5752;SDS011;2901;42.140;24.760;2023-09-18T07:26:28;4.13;;;2.70;;
5752;SDS011;2901;42.140;24.760;2023-09-18T07:28:54;4.70;;;2.78;;
5752;SDS011;2901;42.140;24.760;2023-09-18T07:31:19;4.70;;;2.70;;
5752;SDS011;2901;42.140;24.760;2023-09-18T07:33:45;3.10;;;2.70;;
5752;SDS011;2901;42.140;24.760;2023-09-18T07:36:10;6.35;;;3.72;;
5752;SDS011;2901;42.140;24.760;2023-09-18T07:38:35;2.95;;;2.47;;
5752;SDS011;2901;42.140;24.760;2023-09-18T07:41:02;7.95;;;2.72;;
5752;SDS011;2901;42.140;24.760;2023-09-18T07:43:27;2.63;;;2.45;;
5752;SDS011;2901;42.140;24.760;2023-09-18T07:45:53;4.47;;;2.70;;
5752;SDS011;2901;42.140;24.760;2023-09-18T07:48:19;2.92;;;2.72;;
5752;SDS011;2901;42.140;24.760;2023-09-18T07:50:45;3.67;;;2.67;;
5752;SDS011;2901;42.140;24.760;2023-09-18T07:53:11;3.17;;;2.17;;
5752;SDS011;2901;42.140;24.760;2023-09-18T07:55:36;2.85;;;2.20;;
5752;SDS011;2901;42.140;24.760;2023-09-18T07:58:02;2.30;;;2.10;;
5752;SDS011;2901;42.140;24.760;2023-09-18T08:00:29;3.40;;;2.42;;
5752;SDS011;2901;42.140;24.760;2023-09-18T08:02:55;2.80;;;2.45;;
5752;SDS011;2901;42.140;24.760;2023-09-18T08:05:26;1.80;;;1.70;;
5752;SDS011;2901;42.140;24.760;2023-09-18T08:07:56;2.42;;;2.20;;
5752;SDS011;2901;42.140;24.760;2023-09-18T08:10:24;2.97;;;2.05;;
5752;SDS011;2901;42.140;24.760;2023-09-18T08:12:50;2.50;;;2.38;;
5752;SDS011;2901;42.140;24.760;2023-09-18T08:15:17;3.28;;;2.78;;
5752;SDS011;2901;42.140;24.760;2023-09-18T08:17:46;4.90;;;2.83;;
5752;SDS011;2901;42.140;24.760;2023-09-18T08:20:13;3.72;;;2.42;;
5752;SDS011;2901;42.140;24.760;2023-09-18T08:22:40;5.30;;;2.10;;
5752;SDS011;2901;42.140;24.760;2023-09-18T08:25:07;2.50;;;2.40;;
5752;SDS011;2901;42.140;24.760;2023-09-18T08:27:36;2.65;;;2.55;;
5752;SDS011;2901;42.140;24.760;2023-09-18T08:30:05;2.60;;;2.22;;
5752;SDS011;2901;42.140;24.760;2023-09-18T08:32:31;3.22;;;2.45;;
5752;SDS011;2901;42.140;24.760;2023-09-18T08:34:59;4.90;;;2.15;;
5752;SDS011;2901;42.140;24.760;2023-09-18T08:37:26;4.55;;;2.60;;
5752;SDS011;2901;42.140;24.760;2023-09-18T08:39:52;2.53;;;2.25;;
5752;SDS011;2901;42.140;24.760;2023-09-18T08:42:17;2.20;;;2.10;;
5752;SDS011;2901;42.140;24.760;2023-09-18T08:44:44;1.90;;;1.80;;
5752;SDS011;2901;42.140;24.760;2023-09-18T08:47:13;1.95;;;1.80;;
5752;SDS011;2901;42.140;24.760;2023-09-18T08:49:40;5.78;;;2.75;;
5752;SDS011;2901;42.140;24.760;2023-09-18T08:52:06;3.88;;;1.73;;
5752;SDS011;2901;42.140;24.760;2023-09-18T08:54:33;3.60;;;2.40;;
5752;SDS011;2901;42.140;24.760;2023-09-18T08:56:58;2.70;;;1.77;;
5752;SDS011;2901;42.140;24.760;2023-09-18T08:59:24;2.20;;;2.00;;
5752;SDS011;2901;42.140;24.760;2023-09-18T09:01:51;3.13;;;1.70;;
5752;SDS011;2901;42.140;24.760;2023-09-18T09:04:17;2.15;;;2.05;;
5752;SDS011;2901;42.140;24.760;2023-09-18T09:06:42;2.72;;;2.17;;
5752;SDS011;2901;42.140;24.760;2023-09-18T09:09:08;5.00;;;2.80;;
5752;SDS011;2901;42.140;24.760;2023-09-18T09:11:34;2.25;;;2.15;;
5752;SDS011;2901;42.140;24.760;2023-09-18T09:14:21;2.13;;;1.67;;
5752;SDS011;2901;42.140;24.760;2023-09-18T09:16:53;2.67;;;2.47;;
5752;SDS011;2901;42.140;24.760;2023-09-18T09:19:29;2.47;;;2.28;;
5752;SDS011;2901;42.140;24.760;2023-09-18T09:22:04;4.78;;;3.00;;
5752;SDS011;2901;42.140;24.760;2023-09-18T09:24:40;4.13;;;2.08;;
5752;SDS011;2901;42.140;24.760;2023-09-18T09:27:07;3.22;;;2.30;;
5752;SDS011;2901;42.140;24.760;2023-09-18T09:29:33;3.08;;;2.80;;
5752;SDS011;2901;42.140;24.760;2023-09-18T09:34:59;5.93;;;2.58;;
5752;SDS011;2901;42.140;24.760;2023-09-18T09:37:31;6.22;;;2.47;;
5752;SDS011;2901;42.140;24.760;2023-09-18T09:39:57;3.13;;;2.92;;
5752;SDS011;2901;42.140;24.760;2023-09-18T09:42:38;5.38;;;2.95;;
5752;SDS011;2901;42.140;24.760;2023-09-18T09:45:10;2.95;;;2.67;;
5752;SDS011;2901;42.140;24.760;2023-09-18T09:47:37;3.47;;;2.80;;
5752;SDS011;2901;42.140;24.760;2023-09-18T09:50:09;4.25;;;3.83;;
5752;SDS011;2901;42.140;24.760;2023-09-18T09:52:46;2.47;;;2.28;;
5752;SDS011;2901;42.140;24.760;2023-09-18T09:57:56;2.90;;;2.47;;
5752;SDS011;2901;42.140;24.760;2023-09-18T10:00:31;5.05;;;3.08;;
5752;SDS011;2901;42.140;24.760;2023-09-18T10:03:07;2.88;;;2.67;;
5752;SDS011;2901;42.140;24.760;2023-09-18T10:05:35;2.47;;;2.38;;
5752;SDS011;2901;42.140;24.760;2023-09-18T10:08:08;2.47;;;2.38;;
5752;SDS011;2901;42.140;24.760;2023-09-18T10:10:42;2.60;;;2.40;;
5752;SDS011;2901;42.140;24.760;2023-09-18T10:15:58;5.43;;;2.22;;
5752;SDS011;2901;42.140;24.760;2023-09-18T10:18:36;2.30;;;2.20;;
5752;SDS011;2901;42.140;24.760;2023-09-18T10:24:03;2.80;;;2.60;;
5752;SDS011;2901;42.140;24.760;2023-09-18T10:26:55;2.35;;;2.15;;
5752;SDS011;2901;42.140;24.760;2023-09-18T10:29:28;2.40;;;2.30;;
5752;SDS011;2901;42.140;24.760;2023-09-18T10:31:55;2.35;;;2.05;;
5752;SDS011;2901;42.140;24.760;2023-09-18T10:34:21;3.13;;;1.90;;
5752;SDS011;2901;42.140;24.760;2023-09-18T10:36:49;3.30;;;2.55;;
5752;SDS011;2901;42.140;24.760;2023-09-18T10:39:15;3.85;;;2.03;;
5752;SDS011;2901;42.140;24.760;2023-09-18T10:41:51;2.75;;;2.17;;
5752;SDS011;2901;42.140;24.760;2023-09-18T10:44:20;2.45;;;2.28;;
5752;SDS011;2901;42.140;24.760;2023-09-18T10:46:48;5.05;;;2.22;;
5752;SDS011;2901;42.140;24.760;2023-09-18T10:49:15;2.95;;;2.60;;
5752;SDS011;2901;42.140;24.760;2023-09-18T10:51:41;6.93;;;2.47;;
5752;SDS011;2901;42.140;24.760;2023-09-18T10:54:11;2.88;;;2.67;;
5752;SDS011;2901;42.140;24.760;2023-09-18T10:56:41;3.63;;;2.00;;
5752;SDS011;2901;42.140;24.760;2023-09-18T10:59:07;3.45;;;2.50;;
5752;SDS011;2901;42.140;24.760;2023-09-18T11:01:34;2.28;;;2.13;;
5752;SDS011;2901;42.140;24.760;2023-09-18T11:04:02;2.55;;;2.35;;
5752;SDS011;2901;42.140;24.760;2023-09-18T11:06:29;2.75;;;2.10;;
5752;SDS011;2901;42.140;24.760;2023-09-18T11:09:07;1.95;;;1.85;;
5752;SDS011;2901;42.140;24.760;2023-09-18T11:11:34;1.98;;;1.88;;
5752;SDS011;2901;42.140;24.760;2023-09-18T11:14:00;1.73;;;1.63;;
5752;SDS011;2901;42.140;24.760;2023-09-18T11:21:24;2.30;;;2.13;;
5752;SDS011;2901;42.140;24.760;2023-09-18T11:24:01;4.00;;;2.55;;
5752;SDS011;2901;42.140;24.760;2023-09-18T11:26:32;5.13;;;2.95;;
5752;SDS011;2901;42.140;24.760;2023-09-18T11:29:08;2.10;;;1.95;;
5752;SDS011;2901;42.140;24.760;2023-09-18T11:31:43;3.03;;;1.80;;
5752;SDS011;2901;42.140;24.760;2023-09-18T11:34:14;2.10;;;2.00;;
5752;SDS011;2901;42.140;24.760;2023-09-18T11:36:44;2.10;;;1.90;;
5752;SDS011;2901;42.140;24.760;2023-09-18T11:39:10;2.90;;;2.60;;
5752;SDS011;2901;42.140;24.760;2023-09-18T11:41:36;3.88;;;2.92;;
5752;SDS011;2901;42.140;24.760;2023-09-18T11:46:32;2.00;;;1.90;;
5752;SDS011;2901;42.140;24.760;2023-09-18T11:48:58;4.90;;;2.28;;
5752;SDS011;2901;42.140;24.760;2023-09-18T11:51:24;3.03;;;2.15;;
5752;SDS011;2901;42.140;24.760;2023-09-18T11:53:54;2.38;;;2.00;;
5752;SDS011;2901;42.140;24.760;2023-09-18T11:56:22;1.90;;;1.80;;
5752;SDS011;2901;42.140;24.760;2023-09-18T11:58:48;4.43;;;2.00;;
5752;SDS011;2901;42.140;24.760;2023-09-18T12:01:14;1.70;;;1.60;;
5752;SDS011;2901;42.140;24.760;2023-09-18T12:03:40;1.95;;;1.85;;
5752;SDS011;2901;42.140;24.760;2023-09-18T12:06:06;2.90;;;1.77;;
5752;SDS011;2901;42.140;24.760;2023-09-18T12:08:34;1.90;;;1.80;;
5752;SDS011;2901;42.140;24.760;2023-09-18T12:11:01;2.83;;;2.40;;
5752;SDS011;2901;42.140;24.760;2023-09-18T12:13:30;2.05;;;1.95;;
5752;SDS011;2901;42.140;24.760;2023-09-18T12:15:57;1.75;;;1.65;;
5752;SDS011;2901;42.140;24.760;2023-09-18T12:18:23;2.75;;;2.40;;
5752;SDS011;2901;42.140;24.760;2023-09-18T12:20:50;2.15;;;1.95;;
5752;SDS011;2901;42.140;24.760;2023-09-18T12:23:16;2.03;;;1.92;;
5752;SDS011;2901;42.140;24.760;2023-09-18T12:25:46;4.20;;;2.53;;
5752;SDS011;2901;42.140;24.760;2023-09-18T12:28:14;5.63;;;1.75;;
5752;SDS011;2901;42.140;24.760;2023-09-18T12:30:41;2.97;;;2.25;;
5752;SDS011;2901;42.140;24.760;2023-09-18T12:33:07;2.20;;;2.00;;
5752;SDS011;2901;42.140;24.760;2023-09-18T12:35:33;3.92;;;2.55;;
5752;SDS011;2901;42.140;24.760;2023-09-18T12:37:59;2.05;;;1.80;;
5752;SDS011;2901;42.140;24.760;2023-09-18T12:40:29;3.28;;;2.00;;
5752;SDS011;2901;42.140;24.760;2023-09-18T12:42:56;1.65;;;1.55;;
5752;SDS011;2901;42.140;24.760;2023-09-18T12:45:23;2.03;;;1.75;;
5752;SDS011;2901;42.140;24.760;2023-09-18T12:47:50;1.67;;;1.58;;
5752;SDS011;2901;42.140;24.760;2023-09-18T12:50:16;3.17;;;1.92;;
5752;SDS011;2901;42.140;24.760;2023-09-18T12:52:41;3.38;;;2.60;;
5752;SDS011;2901;42.140;24.760;2023-09-18T12:55:07;3.67;;;2.33;;
5752;SDS011;2901;42.140;24.760;2023-09-18T12:57:33;3.28;;;2.97;;
5752;SDS011;2901;42.140;24.760;2023-09-18T12:59:58;2.00;;;1.90;;
5752;SDS011;2901;42.140;24.760;2023-09-18T13:02:24;2.85;;;2.42;;
5752;SDS011;2901;42.140;24.760;2023-09-18T13:04:53;2.88;;;2.22;;
5752;SDS011;2901;42.140;24.760;2023-09-18T13:07:20;2.70;;;2.50;;
5752;SDS011;2901;42.140;24.760;2023-09-18T13:10:05;4.53;;;2.03;;
5752;SDS011;2901;42.140;24.760;2023-09-18T13:12:51;2.30;;;2.15;;
5752;SDS011;2901;42.140;24.760;2023-09-18T13:15:26;7.68;;;2.20;;
5752;SDS011;2901;42.140;24.760;2023-09-18T13:17:53;6.60;;;2.13;;
5752;SDS011;2901;42.140;24.760;2023-09-18T13:20:23;3.50;;;2.10;;
5752;SDS011;2901;42.140;24.760;2023-09-18T13:22:51;2.22;;;1.88;;
5752;SDS011;2901;42.140;24.760;2023-09-18T13:25:25;2.30;;;2.10;;
5752;SDS011;2901;42.140;24.760;2023-09-18T13:27:53;2.42;;;2.17;;
5752;SDS011;2901;42.140;24.760;2023-09-18T13:30:19;2.78;;;2.67;;
5752;SDS011;2901;42.140;24.760;2023-09-18T13:32:46;4.85;;;2.30;;
5752;SDS011;2901;42.140;24.760;2023-09-18T13:35:13;4.18;;;2.20;;
5752;SDS011;2901;42.140;24.760;2023-09-18T13:37:43;2.50;;;2.05;;
5752;SDS011;2901;42.140;24.760;2023-09-18T13:40:09;2.72;;;2.22;;
5752;SDS011;2901;42.140;24.760;2023-09-18T13:42:36;2.30;;;2.08;;
5752;SDS011;2901;42.140;24.760;2023-09-18T13:45:02;4.03;;;2.28;;
5752;SDS011;2901;42.140;24.760;2023-09-18T13:47:32;1.77;;;1.67;;
5752;SDS011;2901;42.140;24.760;2023-09-18T13:49:59;2.50;;;2.22;;
5752;SDS011;2901;42.140;24.760;2023-09-18T13:52:25;3.28;;;2.05;;
5752;SDS011;2901;42.140;24.760;2023-09-18T13:54:52;3.35;;;2.40;;
5752;SDS011;2901;42.140;24.760;2023-09-18T13:57:18;2.78;;;2.33;;
5752;SDS011;2901;42.140;24.760;2023-09-18T13:59:47;2.83;;;2.63;;
5752;SDS011;2901;42.140;24.760;2023-09-18T14:02:14;4.43;;;3.13;;
5752;SDS011;2901;42.140;24.760;2023-09-18T14:04:40;3.47;;;2.78;;
5752;SDS011;2901;42.140;24.760;2023-09-18T14:07:06;5.15;;;2.70;;
5752;SDS011;2901;42.140;24.760;2023-09-18T14:09:32;2.50;;;2.08;;
5752;SDS011;2901;42.140;24.760;2023-09-18T14:11:57;3.20;;;2.17;;
5752;SDS011;2901;42.140;24.760;2023-09-18T14:14:23;2.35;;;2.25;;
5752;SDS011;2901;42.140;24.760;2023-09-18T14:16:49;2.97;;;2.78;;
5752;SDS011;2901;42.140;24.760;2023-09-18T14:19:18;4.57;;;2.90;;
5752;SDS011;2901;42.140;24.760;2023-09-18T14:21:44;3.80;;;2.80;;
5752;SDS011;2901;42.140;24.760;2023-09-18T14:24:09;3.15;;;2.92;;
5752;SDS011;2901;42.140;24.760;2023-09-18T14:26:35;2.47;;;2.08;;
5752;SDS011;2901;42.140;24.760;2023-09-18T14:29:08;3.08;;;2.88;;
5752;SDS011;2901;42.140;24.760;2023-09-18T14:31:37;2.42;;;2.25;;
5752;SDS011;2901;42.140;24.760;2023-09-18T14:34:03;2.92;;;2.30;;
5752;SDS011;2901;42.140;24.760;2023-09-18T14:36:30;2.75;;;2.53;;
5752;SDS011;2901;42.140;24.760;2023-09-18T14:38:57;2.22;;;2.13;;
5752;SDS011;2901;42.140;24.760;2023-09-18T14:41:23;2.45;;;2.35;;
5752;SDS011;2901;42.140;24.760;2023-09-18T14:43:50;3.13;;;2.92;;
5752;SDS011;2901;42.140;24.760;2023-09-18T14:46:16;3.22;;;2.53;;
5752;SDS011;2901;42.140;24.760;2023-09-18T14:48:42;2.88;;;2.35;;
5752;SDS011;2901;42.140;24.760;2023-09-18T14:51:07;2.40;;;2.05;;
5752;SDS011;2901;42.140;24.760;2023-09-18T14:53:32;4.25;;;2.80;;
5752;SDS011;2901;42.140;24.760;2023-09-18T14:55:58;3.05;;;2.88;;
5752;SDS011;2901;42.140;24.760;2023-09-18T14:58:23;2.75;;;2.55;;
5752;SDS011;2901;42.140;24.760;2023-09-18T15:00:49;3.60;;;2.78;;
5752;SDS011;2901;42.140;24.760;2023-09-18T15:03:15;2.72;;;2.53;;
5752;SDS011;2901;42.140;24.760;2023-09-18T15:05:40;5.13;;;4.25;;
5752;SDS011;2901;42.140;24.760;2023-09-18T15:08:06;4.30;;;2.70;;
5752;SDS011;2901;42.140;24.760;2023-09-18T15:10:32;3.38;;;3.10;;
5752;SDS011;2901;42.140;24.760;2023-09-18T15:12:57;3.22;;;3.03;;
5752;SDS011;2901;42.140;24.760;2023-09-18T15:15:22;6.75;;;4.25;;
5752;SDS011;2901;42.140;24.760;2023-09-18T15:17:49;4.93;;;3.50;;
5752;SDS011;2901;42.140;24.760;2023-09-18T15:20:35;3.55;;;2.95;;
5752;SDS011;2901;42.140;24.760;2023-09-18T15:23:01;3.75;;;3.53;;